createdAt,value
2022-08-04T00:02:03.784Z,19.52
2022-08-04T00:04:43.215Z,19.48
2022-08-04T00:07:20.296Z,19.46
2022-08-04T00:10:08.945Z,19.40
2022-08-04T00:12:45.143Z,19.42
2022-08-04T00:15:16.705Z,19.47
2022-08-04T00:17:59.603Z,19.49
2022-08-04T00:20:32.187Z,19.47
2022-08-04T00:23:01.796Z,19.45
2022-08-04T00:25:29.717Z,19.42
2022-08-04T00:27:56.483Z,19.36
2022-08-04T00:30:24.210Z,19.31
2022-08-04T00:32:52.237Z,19.28
2022-08-04T00:35:19.446Z,19.24
2022-08-04T00:37:46.593Z,19.19
2022-08-04T00:40:28.921Z,19.16
2022-08-04T00:43:08.689Z,19.11
2022-08-04T00:46:15.424Z,19.11
2022-08-04T00:48:58.849Z,19.07
2022-08-04T00:51:42.147Z,19.02
2022-08-04T00:54:20.998Z,19.01
2022-08-04T00:57:34.096Z,18.96
2022-08-04T01:00:12.321Z,18.96
2022-08-04T01:02:51.718Z,18.95
2022-08-04T01:05:38.237Z,18.95
2022-08-04T01:08:34.406Z,19.00
2022-08-04T01:11:56.721Z,18.98
2022-08-04T01:14:39.448Z,18.99
2022-08-04T01:17:21.826Z,19.01
2022-08-04T01:20:08.679Z,18.99
2022-08-04T01:23:35.176Z,18.98
2022-08-04T01:26:42.379Z,18.97
2022-08-04T01:29:16.467Z,18.91
2022-08-04T01:31:49.281Z,18.92
2022-08-04T01:34:19.166Z,18.93
2022-08-04T01:36:57.687Z,18.95
2022-08-04T01:39:40.535Z,18.94
2022-08-04T01:42:09.940Z,18.98
2022-08-04T01:44:39.556Z,18.96
2022-08-04T01:47:08.778Z,18.96
2022-08-04T01:49:40.559Z,18.95
2022-08-04T01:52:10.260Z,18.94
2022-08-04T01:54:39.487Z,18.93
2022-08-04T01:57:37.111Z,18.92
2022-08-04T01:59:56.238Z,18.85
2022-08-04T02:02:24.473Z,18.87
2022-08-04T02:04:52.104Z,18.85
2022-08-04T02:07:43.225Z,18.85
2022-08-04T02:10:41.306Z,18.85
2022-08-04T02:13:28.201Z,18.83
2022-08-04T02:16:16.615Z,18.82
2022-08-04T02:18:50.289Z,18.83
2022-08-04T02:21:20.251Z,18.82
2022-08-04T02:23:54.055Z,18.80
2022-08-04T02:26:26.101Z,18.81
2022-08-04T02:29:19.419Z,18.79
2022-08-04T02:31:49.350Z,18.79
2022-08-04T02:34:29.037Z,18.77
2022-08-04T02:36:59.146Z,18.75
2022-08-04T02:39:41.481Z,18.75
2022-08-04T02:42:16.695Z,18.73
2022-08-04T02:44:47.368Z,18.74
2022-08-04T02:47:14.984Z,18.70
2022-08-04T02:49:45.616Z,18.73
2022-08-04T02:52:15.205Z,18.74
2022-08-04T02:54:44.515Z,18.74
2022-08-04T02:57:15.450Z,18.65
2022-08-04T03:00:10.309Z,18.68
2022-08-04T03:02:49.288Z,18.65
2022-08-04T03:05:25.296Z,18.66
2022-08-04T03:08:13.762Z,18.66
2022-08-04T03:11:05.745Z,18.69
2022-08-04T03:14:10.581Z,18.68
2022-08-04T03:17:02.974Z,18.68
2022-08-04T03:19:48.873Z,18.67
2022-08-04T03:22:27.628Z,18.67
2022-08-04T03:25:29.742Z,18.66
2022-08-04T03:28:17.515Z,18.70
2022-08-04T03:31:18.357Z,18.69
2022-08-04T03:34:00.102Z,18.72
2022-08-04T03:36:41.995Z,18.72
2022-08-04T03:39:27.755Z,18.74
2022-08-04T03:42:16.101Z,18.76
2022-08-04T03:45:24.564Z,18.76
2022-08-04T03:48:00.382Z,18.73
2022-08-04T03:50:42.166Z,18.75
2022-08-04T03:53:27.098Z,18.76
2022-08-04T03:56:41.493Z,18.77
2022-08-04T03:59:24.704Z,18.80
2022-08-04T04:02:39.973Z,18.83
2022-08-04T04:05:29.386Z,18.85
2022-08-04T04:08:27.481Z,18.90
2022-08-04T04:11:19.205Z,18.92
2022-08-04T04:13:55.450Z,18.97
2022-08-04T04:16:44.000Z,19.07
2022-08-04T04:19:29.527Z,19.16
2022-08-04T04:22:08.784Z,19.22
2022-08-04T04:24:45.275Z,19.26
2022-08-04T04:27:27.325Z,19.31
2022-08-04T04:30:16.263Z,19.37
2022-08-04T04:33:07.862Z,19.47
2022-08-04T04:36:13.826Z,19.56
2022-08-04T04:39:02.765Z,19.69
2022-08-04T04:41:46.981Z,19.77
2022-08-04T04:44:48.941Z,19.77
2022-08-04T04:48:07.632Z,19.93
2022-08-04T04:50:36.856Z,20.04
2022-08-04T04:53:31.046Z,20.08
2022-08-04T04:56:11.829Z,20.14
2022-08-04T04:58:39.983Z,20.25
2022-08-04T05:01:26.223Z,20.50
2022-08-04T05:04:27.002Z,20.75
2022-08-04T05:07:10.638Z,21.13
2022-08-04T05:09:55.988Z,21.38
2022-08-04T05:14:31.694Z,21.59
2022-08-04T05:15:30.478Z,21.73
2022-08-04T05:18:00.970Z,21.70
2022-08-04T05:20:38.848Z,21.73
2022-08-04T05:23:19.597Z,21.79
2022-08-04T05:25:59.677Z,21.93
2022-08-04T05:28:29.754Z,22.12
2022-08-04T05:31:04.147Z,22.22
2022-08-04T05:33:42.740Z,22.51
2022-08-04T05:36:35.299Z,22.74
2022-08-04T05:39:13.359Z,23.01
2022-08-04T05:41:45.502Z,23.45
2022-08-04T05:44:19.807Z,23.65
2022-08-04T05:46:54.335Z,23.94
2022-08-04T05:49:27.021Z,24.18
2022-08-04T05:51:56.891Z,24.53
2022-08-04T05:54:24.666Z,24.63
2022-08-04T05:56:53.701Z,24.49
2022-08-04T05:59:21.068Z,24.27
2022-08-04T06:01:56.301Z,24.03
2022-08-04T06:04:33.452Z,24.00
2022-08-04T06:07:00.358Z,24.02
2022-08-04T06:09:27.441Z,24.17
2022-08-04T06:12:04.003Z,24.33
2022-08-04T06:14:36.001Z,24.68
2022-08-04T06:17:06.086Z,25.09
2022-08-04T06:20:02.931Z,25.35
2022-08-04T06:22:44.675Z,25.76
2022-08-04T06:25:15.749Z,26.06
2022-08-04T06:27:43.280Z,26.41
2022-08-04T06:30:14.758Z,26.84
2022-08-04T06:32:48.051Z,27.02
2022-08-04T06:35:19.864Z,26.89
2022-08-04T06:37:48.213Z,27.11
2022-08-04T06:40:31.231Z,27.39
2022-08-04T06:43:06.509Z,27.60
2022-08-04T06:45:37.157Z,27.10
2022-08-04T06:48:06.429Z,26.99
2022-08-04T06:51:32.308Z,26.70
2022-08-04T06:53:25.411Z,26.55
2022-08-04T06:55:53.459Z,26.38
2022-08-04T06:58:21.987Z,25.97
2022-08-04T07:00:50.002Z,25.83
2022-08-04T07:03:19.235Z,25.70
2022-08-04T07:05:49.755Z,25.21
2022-08-04T07:08:17.273Z,25.59
2022-08-04T07:10:45.334Z,25.81
2022-08-04T07:13:12.581Z,26.00
2022-08-04T07:15:44.108Z,26.05
2022-08-04T07:18:11.087Z,26.08
2022-08-04T07:20:42.894Z,26.06
2022-08-04T07:23:12.009Z,26.03
2022-08-04T07:25:59.570Z,26.31
2022-08-04T07:28:28.148Z,26.55
2022-08-04T07:30:56.804Z,26.81
2022-08-04T07:33:24.785Z,26.83
2022-08-04T07:36:05.986Z,27.15
2022-08-04T07:38:48.709Z,27.00
2022-08-04T07:41:42.530Z,27.33
2022-08-04T07:44:14.345Z,27.74
2022-08-04T07:46:41.706Z,27.64
2022-08-04T07:49:08.769Z,27.49
2022-08-04T07:51:36.826Z,27.39
2022-08-04T07:54:05.512Z,27.57
2022-08-04T07:56:35.437Z,28.85
2022-08-04T07:59:02.686Z,29.30
2022-08-04T08:01:30.344Z,29.38
2022-08-04T08:03:58.680Z,29.57
2022-08-04T08:06:33.191Z,29.41
2022-08-04T08:09:14.342Z,29.47
2022-08-04T08:12:38.495Z,30.39
2022-08-04T08:14:38.333Z,30.59
2022-08-04T08:17:05.481Z,30.30
2022-08-04T08:19:33.563Z,30.86
2022-08-04T08:22:01.984Z,31.52
2022-08-04T08:24:31.209Z,31.77
2022-08-04T08:27:00.136Z,32.49
2022-08-04T08:29:29.501Z,33.20
2022-08-04T08:32:01.393Z,33.69
2022-08-04T08:34:31.339Z,33.08
2022-08-04T08:37:23.600Z,32.25
2022-08-04T08:40:04.464Z,32.22
2022-08-04T08:42:47.540Z,31.95
2022-08-04T08:45:32.925Z,31.71
2022-08-04T08:48:33.396Z,31.52
2022-08-04T08:51:25.027Z,31.84
2022-08-04T08:54:15.930Z,31.92
2022-08-04T08:57:03.279Z,31.79
2022-08-04T08:59:57.890Z,31.53
2022-08-04T09:02:34.307Z,32.19
2022-08-04T09:05:29.075Z,32.61
2022-08-04T09:08:26.433Z,32.66
2022-08-04T09:10:57.695Z,33.26
2022-08-04T09:13:34.083Z,33.51
2022-08-04T09:16:27.630Z,33.37
2022-08-04T09:19:02.333Z,34.09
2022-08-04T09:21:36.194Z,34.35
2022-08-04T09:24:34.758Z,33.92
2022-08-04T09:27:09.927Z,33.89
2022-08-04T09:29:43.419Z,34.30
2022-08-04T09:32:32.156Z,34.64
2022-08-04T09:35:13.311Z,35.03
2022-08-04T09:37:48.602Z,35.29
2022-08-04T09:40:31.656Z,35.64
2022-08-04T09:43:59.360Z,34.79
2022-08-04T09:46:23.530Z,33.57
2022-08-04T09:49:10.889Z,34.22
2022-08-04T09:51:59.763Z,34.73
2022-08-04T09:54:38.886Z,35.38
2022-08-04T09:57:45.829Z,36.08
2022-08-04T10:00:17.796Z,35.93
2022-08-04T10:02:52.155Z,36.26
2022-08-04T10:05:26.327Z,36.44
2022-08-04T10:08:35.103Z,36.66
2022-08-04T10:11:14.934Z,35.33
2022-08-04T10:14:01.569Z,34.38
2022-08-04T10:16:54.489Z,33.21
2022-08-04T10:19:26.785Z,32.83
2022-08-04T10:22:29.088Z,33.65
2022-08-04T10:26:03.101Z,34.03
2022-08-04T10:28:09.118Z,34.49
2022-08-04T10:30:40.700Z,34.46
2022-08-04T10:33:44.987Z,35.12
2022-08-04T10:36:17.579Z,34.98
2022-08-04T10:38:59.830Z,34.42
2022-08-04T10:41:45.367Z,35.49
2022-08-04T10:44:23.766Z,35.48
2022-08-04T10:46:56.040Z,35.67
2022-08-04T10:49:31.588Z,34.88
2022-08-04T10:52:11.146Z,34.79
2022-08-04T10:54:49.993Z,34.54
2022-08-04T10:57:40.815Z,33.53
2022-08-04T11:00:14.845Z,32.86
2022-08-04T11:02:54.010Z,33.06
2022-08-04T11:05:46.868Z,33.71
2022-08-04T11:08:21.529Z,33.90
2022-08-04T11:11:00.670Z,33.23
2022-08-04T11:13:45.047Z,33.10
2022-08-04T11:16:26.594Z,32.94
2022-08-04T11:19:20.740Z,31.82
2022-08-04T11:21:56.659Z,31.51
2022-08-04T11:24:34.873Z,31.52
2022-08-04T11:27:06.899Z,31.62
2022-08-04T11:30:01.384Z,31.42
2022-08-04T11:32:37.619Z,31.51
2022-08-04T11:35:09.536Z,31.50
2022-08-04T11:37:46.879Z,30.64
2022-08-04T11:40:27.921Z,30.42
2022-08-04T11:43:02.464Z,30.56
2022-08-04T11:45:38.603Z,30.45
2022-08-04T11:48:11.313Z,30.50
2022-08-04T11:50:53.443Z,30.49
2022-08-04T11:53:24.569Z,30.37
2022-08-04T11:56:08.174Z,30.09
2022-08-04T11:58:38.098Z,30.32
2022-08-04T12:01:32.967Z,31.06
2022-08-04T12:04:10.306Z,32.41
2022-08-04T12:07:15.246Z,32.85
2022-08-04T12:10:10.008Z,32.84
2022-08-04T12:13:14.605Z,33.48
2022-08-04T12:16:02.429Z,31.96
2022-08-04T12:18:45.593Z,31.73
2022-08-04T12:21:37.680Z,31.55
2022-08-04T12:24:08.580Z,30.58
2022-08-04T12:26:41.548Z,30.06
2022-08-04T12:29:11.879Z,29.24
2022-08-04T12:31:47.352Z,28.73
2022-08-04T12:34:40.992Z,28.18
2022-08-04T12:37:35.419Z,27.74
2022-08-04T12:40:27.635Z,28.05
2022-08-04T12:42:59.692Z,28.27
2022-08-04T12:45:27.472Z,27.89
2022-08-04T12:47:57.909Z,27.82
2022-08-04T12:50:25.519Z,27.34
2022-08-04T12:53:04.094Z,27.05
2022-08-04T12:55:34.482Z,26.90
2022-08-04T12:58:04.327Z,26.91
2022-08-04T13:00:40.556Z,27.44
2022-08-04T13:03:11.939Z,27.69
2022-08-04T13:05:42.871Z,29.93
2022-08-04T13:08:11.445Z,29.94
2022-08-04T13:10:46.877Z,30.41
2022-08-04T13:13:17.447Z,29.91
2022-08-04T13:15:56.591Z,29.62
2022-08-04T13:18:29.564Z,29.81
2022-08-04T13:21:19.996Z,30.25
2022-08-04T13:24:10.654Z,30.58
2022-08-04T13:26:55.955Z,30.23
2022-08-04T13:29:59.201Z,29.60
2022-08-04T13:32:22.292Z,28.89
2022-08-04T13:34:53.736Z,29.52
2022-08-04T13:37:26.754Z,30.57
2022-08-04T13:39:56.577Z,30.59
2022-08-04T13:42:26.888Z,31.35
2022-08-04T13:44:57.216Z,31.54
2022-08-04T13:47:29.142Z,33.65
2022-08-04T13:50:30.202Z,34.39
2022-08-04T13:52:59.885Z,34.24
2022-08-04T13:55:32.675Z,35.50
2022-08-04T13:58:10.664Z,36.12
2022-08-04T14:00:45.296Z,34.96
2022-08-04T14:03:24.383Z,36.11
2022-08-04T14:06:10.645Z,35.41
2022-08-04T14:08:47.675Z,35.29
2022-08-04T14:12:10.703Z,34.65
2022-08-04T14:14:23.448Z,33.36
2022-08-04T14:17:01.573Z,32.41
2022-08-04T14:19:48.505Z,31.45
2022-08-04T14:22:27.678Z,32.86
2022-08-04T14:25:16.590Z,32.77
2022-08-04T14:27:48.468Z,31.99
2022-08-04T14:30:24.402Z,32.46
2022-08-04T14:34:03.126Z,32.83
2022-08-04T14:35:59.604Z,34.14
2022-08-04T14:38:48.784Z,33.86
2022-08-04T14:41:17.914Z,32.41
2022-08-04T14:43:51.556Z,31.71
2022-08-04T14:46:18.539Z,32.00
2022-08-04T14:49:04.587Z,31.18
2022-08-04T14:51:55.283Z,31.85
2022-08-04T14:54:31.328Z,32.37
2022-08-04T14:57:02.039Z,31.32
2022-08-04T14:59:41.632Z,29.36
2022-08-04T15:02:29.933Z,28.81
2022-08-04T15:04:57.783Z,30.09
2022-08-04T15:07:25.552Z,30.53
2022-08-04T15:09:52.734Z,30.42
2022-08-04T15:12:20.323Z,29.79
2022-08-04T15:14:47.252Z,29.94
2022-08-04T15:17:29.688Z,30.87
2022-08-04T15:19:58.442Z,31.36
2022-08-04T15:22:25.454Z,30.20
2022-08-04T15:24:55.397Z,29.29
2022-08-04T15:27:27.294Z,29.83
2022-08-04T15:30:00.903Z,29.87
2022-08-04T15:32:41.772Z,29.71
2022-08-04T15:35:12.583Z,28.10
2022-08-04T15:37:57.664Z,27.25
2022-08-04T15:40:56.439Z,28.61
2022-08-04T15:43:42.193Z,28.00
2022-08-04T15:46:44.288Z,26.36
2022-08-04T15:48:55.956Z,26.44
2022-08-04T15:51:31.823Z,25.65
2022-08-04T15:54:03.688Z,25.68
2022-08-04T15:56:35.074Z,26.05
2022-08-04T15:59:01.859Z,25.64
2022-08-04T16:01:28.661Z,25.39
2022-08-04T16:03:59.841Z,24.47
2022-08-04T16:06:29.626Z,24.40
2022-08-04T16:09:05.045Z,24.26
2022-08-04T16:11:37.266Z,23.58
2022-08-04T16:14:04.728Z,23.75
2022-08-04T16:16:46.770Z,23.51
2022-08-04T16:19:34.958Z,23.07
2022-08-04T16:22:04.081Z,22.98
2022-08-04T16:24:36.472Z,22.78
2022-08-04T16:27:08.657Z,22.86
2022-08-04T16:29:46.853Z,22.99
2022-08-04T16:32:16.729Z,23.04
2022-08-04T16:34:58.846Z,22.82
2022-08-04T16:37:37.896Z,22.93
2022-08-04T16:40:41.064Z,22.73
2022-08-04T16:43:16.688Z,22.52
2022-08-04T16:45:46.142Z,22.28
2022-08-04T16:48:15.636Z,22.02
2022-08-04T16:50:50.818Z,22.09
2022-08-04T16:54:02.598Z,22.15
2022-08-04T16:56:10.866Z,22.16
2022-08-04T16:58:37.866Z,22.00
2022-08-04T17:01:28.411Z,22.00
2022-08-04T17:04:04.823Z,21.84
2022-08-04T17:06:38.046Z,21.66
2022-08-04T17:09:17.807Z,21.50
2022-08-04T17:11:46.594Z,21.38
2022-08-04T17:14:13.845Z,21.34
2022-08-04T17:16:43.275Z,21.31
2022-08-04T17:19:24.365Z,21.30
2022-08-04T17:22:02.985Z,21.31
2022-08-04T17:24:33.555Z,21.31
2022-08-04T17:27:00.893Z,21.41
2022-08-04T17:29:42.946Z,21.40
2022-08-04T17:32:21.024Z,21.22
2022-08-04T17:34:50.629Z,21.03
2022-08-04T17:37:39.183Z,20.70
2022-08-04T17:40:17.916Z,20.85
2022-08-04T17:43:01.046Z,20.86
2022-08-04T17:48:24.906Z,20.62
2022-08-04T17:50:52.106Z,20.63
2022-08-04T17:54:01.776Z,20.45
2022-08-04T17:56:51.554Z,20.30
2022-08-04T17:59:55.566Z,20.15
2022-08-04T18:02:32.603Z,20.13
2022-08-04T18:05:06.230Z,20.12
2022-08-04T18:08:39.842Z,20.00
2022-08-04T18:10:44.644Z,19.91
2022-08-04T18:13:21.737Z,19.88
2022-08-04T18:15:51.153Z,19.80
2022-08-04T18:18:23.345Z,19.67
2022-08-04T18:20:50.710Z,19.55
2022-08-04T18:23:17.579Z,19.51
2022-08-04T18:25:51.403Z,19.47
2022-08-04T18:28:26.614Z,19.37
2022-08-04T18:30:55.201Z,19.37
2022-08-04T18:33:37.615Z,19.27
2022-08-04T18:36:34.779Z,19.21
2022-08-04T18:38:58.175Z,19.12
2022-08-04T18:41:27.680Z,19.07
2022-08-04T18:43:57.934Z,19.02
2022-08-04T18:46:26.966Z,18.94
2022-08-04T18:48:54.634Z,18.83
2022-08-04T18:51:25.147Z,18.81
2022-08-04T18:57:24.465Z,18.76
2022-08-04T18:59:33.719Z,18.78
2022-08-04T19:02:16.469Z,19.02
2022-08-04T19:04:44.769Z,19.20
2022-08-04T19:07:29.448Z,19.22
2022-08-04T19:09:59.738Z,19.19
2022-08-04T19:12:28.522Z,19.19
2022-08-04T19:15:08.752Z,19.15
2022-08-04T19:17:52.809Z,19.21
2022-08-04T19:20:25.463Z,19.21
2022-08-04T19:24:26.252Z,19.12
2022-08-04T19:26:02.680Z,18.99
2022-08-04T19:28:31.889Z,18.87
2022-08-04T19:31:02.013Z,18.72
2022-08-04T19:33:55.953Z,18.67
2022-08-04T19:36:17.285Z,18.58
2022-08-04T19:38:44.928Z,18.52
2022-08-04T19:41:14.642Z,18.29
2022-08-04T19:43:43.906Z,18.20
2022-08-04T19:46:11.319Z,18.10
2022-08-04T19:48:40.206Z,18.08
2022-08-04T19:51:07.819Z,18.07
2022-08-04T19:53:37.498Z,18.06
2022-08-04T19:56:05.376Z,18.12
2022-08-04T19:58:32.157Z,18.18
2022-08-04T20:00:58.983Z,18.22
2022-08-04T20:06:13.208Z,18.13
2022-08-04T20:08:48.343Z,18.05
2022-08-04T20:11:16.594Z,18.01
2022-08-04T20:13:45.303Z,18.01
2022-08-04T20:16:29.188Z,17.97
2022-08-04T20:19:03.118Z,17.95
2022-08-04T20:21:53.486Z,17.90
2022-08-04T20:24:37.791Z,17.84
2022-08-04T20:27:09.003Z,17.79
2022-08-04T20:29:43.166Z,17.72
2022-08-04T20:32:10.471Z,17.66
2022-08-04T20:34:41.547Z,17.62
2022-08-04T20:37:15.328Z,17.59
2022-08-04T20:39:42.679Z,17.54
2022-08-04T20:42:11.515Z,17.56
2022-08-04T20:44:46.237Z,17.55
2022-08-04T20:47:13.260Z,17.53
2022-08-04T20:49:41.000Z,17.51
2022-08-04T20:52:16.434Z,17.49
2022-08-04T20:54:48.609Z,17.47
2022-08-04T20:57:16.845Z,17.47
2022-08-04T20:59:44.145Z,17.42
2022-08-04T21:02:26.855Z,17.43
2022-08-04T21:04:53.986Z,17.44
2022-08-04T21:07:22.183Z,17.38
2022-08-04T21:09:50.695Z,17.33
2022-08-04T21:12:28.566Z,17.30
2022-08-04T21:15:01.534Z,17.28
2022-08-04T21:17:59.018Z,17.25
2022-08-04T21:20:28.517Z,17.24
2022-08-04T21:22:59.863Z,17.15
2022-08-04T21:25:29.724Z,17.06
2022-08-04T21:27:58.936Z,16.96
2022-08-04T21:30:31.020Z,16.89
2022-08-04T21:33:04.381Z,16.90
2022-08-04T21:35:37.861Z,16.87
2022-08-04T21:38:16.292Z,16.86
2022-08-04T21:41:01.943Z,16.81
2022-08-04T21:43:46.257Z,16.54
2022-08-04T21:46:13.077Z,16.32
2022-08-04T21:48:42.314Z,16.17
2022-08-04T21:51:56.737Z,16.13
2022-08-04T21:54:05.658Z,16.12
2022-08-04T21:56:33.354Z,16.06
2022-08-04T21:59:00.241Z,16.04
2022-08-04T22:01:50.009Z,16.06
2022-08-04T22:04:14.324Z,16.10
2022-08-04T22:06:42.068Z,16.18
2022-08-04T22:09:18.602Z,16.26
2022-08-04T22:11:50.618Z,16.32
2022-08-04T22:14:27.407Z,16.42
2022-08-04T22:16:57.649Z,16.51
2022-08-04T22:19:40.692Z,16.54
2022-08-04T22:22:12.678Z,16.56
2022-08-04T22:24:41.068Z,16.58
2022-08-04T22:27:12.022Z,16.62
2022-08-04T22:29:39.360Z,16.64
2022-08-04T22:32:11.692Z,16.64
2022-08-04T22:34:45.378Z,16.63
2022-08-04T22:37:12.730Z,16.61
2022-08-04T22:39:56.438Z,16.67
2022-08-04T22:42:24.171Z,16.74
2022-08-04T22:44:52.215Z,16.79
2022-08-04T22:47:20.369Z,16.86
2022-08-04T22:50:01.586Z,16.84
2022-08-04T22:52:37.149Z,16.77
2022-08-04T22:55:22.898Z,16.71
2022-08-04T22:58:04.544Z,16.73
2022-08-04T23:00:31.979Z,16.77
2022-08-04T23:02:58.873Z,16.83
2022-08-04T23:05:35.535Z,16.90
2022-08-04T23:08:05.091Z,16.94
2022-08-04T23:10:32.452Z,16.99
2022-08-04T23:13:03.975Z,17.03
2022-08-04T23:15:33.816Z,17.07
2022-08-04T23:18:01.313Z,17.08
2022-08-04T23:20:32.690Z,17.08
2022-08-04T23:23:00.676Z,17.08
2022-08-04T23:26:08.428Z,17.10
2022-08-04T23:28:30.977Z,17.09
2022-08-04T23:30:57.735Z,17.05
2022-08-04T23:33:24.949Z,16.95
2022-08-04T23:36:11.871Z,16.84
2022-08-04T23:38:39.219Z,16.77
2022-08-04T23:41:13.542Z,16.72
2022-08-04T23:43:49.576Z,16.64
2022-08-04T23:46:22.975Z,16.66
2022-08-04T23:48:51.043Z,16.63
2022-08-04T23:51:19.464Z,16.61
2022-08-04T23:54:02.427Z,16.70
2022-08-04T23:56:34.736Z,16.79
2022-08-04T23:59:03.653Z,16.80
